Terminal Aerodrome Forecast
Issued by NWS

Home | Current Version | Previous Version | Text Only | Print | Product List | Glossary On
Versions: 1 2 3 4 5 6 7 8 9 10 11 12 13 14 15 16 17 18 19 20
000
FTUS42 KJAX 290521
TAFVQQ
TAF
KVQQ 290521Z 2906/3006 VRB03KT P6SM SCT250
      TEMPO 2909/2912 4SM BR
     FM291600 08009KT P6SM SCT040 SCT250
     FM300100 VRB03KT P6SM SCT250=

USA.gov is the U.S. government's official web portal to all federal, state and local government web resources and services.